Shingletown, California
Current Conditions -  °F | °C
As of 9:07 PM on Friday 19 Dec 2014 (Local Time) from KRDD Reporting Station
Haze Haze  
Wind Chill: 51°   Ceiling: 700
Heat Index: 51°   Visibility: 2.5mi
Dew Point: 51°   Wind: 7mph
Humidity: 100%   Direction: 180°S
Pressure: 30.13"   Gusts: NA
Location:  40.49°N, 121.89°W
Report Text: KRDD 200507Z 18006KT 2 1/2SM BR OVC007 11/11 A3013 RMK AO2 CIG 004V009 T01060106
Loading
Personal Weather Stations






























Interactive Weather Map New forecast layout! Learn more

10-Day Weather Forecast

Advertisements
Track Severe Weather on mobile